createdAt,value
2024-01-27T00:01:44.629Z,4.28
2024-01-27T00:04:12.657Z,4.27
2024-01-27T00:06:40.735Z,4.24
2024-01-27T00:09:08.833Z,4.24
2024-01-27T00:11:36.965Z,4.28
2024-01-27T00:14:05.281Z,4.32
2024-01-27T00:16:33.312Z,4.33
2024-01-27T00:19:02.953Z,4.28
2024-01-27T00:21:31.129Z,4.32
2024-01-27T00:24:02.255Z,4.33
2024-01-27T00:26:30.465Z,4.36
2024-01-27T00:28:58.504Z,4.37
2024-01-27T00:31:26.631Z,4.34
2024-01-27T00:33:54.784Z,4.43
2024-01-27T00:36:24.411Z,4.37
2024-01-27T00:38:52.523Z,4.33
2024-01-27T00:41:20.863Z,4.36
2024-01-27T00:43:48.950Z,4.39
2024-01-27T00:46:17.008Z,4.33
2024-01-27T00:48:45.220Z,4.33
2024-01-27T00:51:13.617Z,4.32
2024-01-27T00:53:43.449Z,4.34
2024-01-27T00:56:11.500Z,4.33
2024-01-27T00:58:39.519Z,4.31
2024-01-27T01:01:07.662Z,4.26
2024-01-27T01:03:35.841Z,4.28
2024-01-27T01:06:04.402Z,4.27
2024-01-27T01:08:33.952Z,4.24
2024-01-27T01:11:03.504Z,4.23
2024-01-27T01:13:31.626Z,4.19
2024-01-27T01:15:59.675Z,4.16
2024-01-27T01:18:27.824Z,4.13
2024-01-27T01:20:56.006Z,4.13
2024-01-27T01:23:24.051Z,4.14
2024-01-27T01:25:52.079Z,4.14
2024-01-27T01:28:21.586Z,4.12
2024-01-27T01:30:51.098Z,4.09
2024-01-27T01:33:19.523Z,4.10
2024-01-27T01:35:47.939Z,4.06
2024-01-27T01:38:16.048Z,4.05
2024-01-27T01:40:44.108Z,4.03
2024-01-27T01:43:13.364Z,4.03
2024-01-27T01:45:42.812Z,4.02
2024-01-27T01:48:11.274Z,4.03
2024-01-27T01:50:39.519Z,4.03
2024-01-27T01:53:08.948Z,4.02
2024-01-27T01:55:37.197Z,4.01
2024-01-27T01:58:05.689Z,3.99
2024-01-27T02:00:34.022Z,3.98
2024-01-27T02:03:03.649Z,3.95
2024-01-27T02:05:31.779Z,3.93
2024-01-27T02:08:01.299Z,3.91
2024-01-27T02:10:31.487Z,3.92
2024-01-27T02:12:59.593Z,3.90
2024-01-27T02:15:27.853Z,3.89
2024-01-27T02:17:56.095Z,3.86
2024-01-27T02:20:25.611Z,3.81
2024-01-27T02:22:53.665Z,3.74
2024-01-27T02:25:23.085Z,3.71
2024-01-27T02:27:51.142Z,3.71
2024-01-27T02:30:19.223Z,3.72
2024-01-27T02:32:47.399Z,3.64
2024-01-27T02:35:15.693Z,3.65
2024-01-27T02:37:44.007Z,3.61
2024-01-27T02:40:13.066Z,3.58
2024-01-27T02:42:43.506Z,3.48
2024-01-27T02:45:12.371Z,3.45
2024-01-27T02:47:40.464Z,3.43
2024-01-27T02:50:09.924Z,3.50
2024-01-27T02:52:38.054Z,3.43
2024-01-27T02:55:06.576Z,3.44
2024-01-27T02:57:34.691Z,3.37
2024-01-27T03:00:04.580Z,3.31
2024-01-27T03:02:32.764Z,3.32
2024-01-27T03:05:00.836Z,3.28
2024-01-27T03:07:28.906Z,3.26
2024-01-27T03:09:56.979Z,3.18
2024-01-27T03:12:25.264Z,3.19
2024-01-27T03:14:53.352Z,3.29
2024-01-27T03:17:22.786Z,3.20
2024-01-27T03:19:50.918Z,3.26
2024-01-27T03:22:19.027Z,3.21
2024-01-27T03:24:47.071Z,3.17
2024-01-27T03:27:15.142Z,3.19
2024-01-27T03:29:43.183Z,3.15
2024-01-27T03:32:11.267Z,3.12
2024-01-27T03:34:45.680Z,3.09
2024-01-27T03:37:13.885Z,3.10
2024-01-27T03:39:43.727Z,3.09
2024-01-27T03:42:11.817Z,3.07
2024-01-27T03:44:39.881Z,3.06
2024-01-27T03:47:07.982Z,3.07
2024-01-27T03:49:36.250Z,3.09
2024-01-27T03:52:06.795Z,3.04
2024-01-27T03:54:34.994Z,3.01
2024-01-27T03:57:03.066Z,2.99
2024-01-27T03:59:31.115Z,3.01
2024-01-27T04:01:59.332Z,3.02
2024-01-27T04:04:27.510Z,3.05
2024-01-27T04:06:55.729Z,3.01
2024-01-27T04:09:25.430Z,3.04
2024-01-27T04:11:53.971Z,2.93
2024-01-27T04:14:22.054Z,2.95
2024-01-27T04:16:50.060Z,2.95
2024-01-27T04:19:18.218Z,2.94
2024-01-27T04:21:46.347Z,2.99
2024-01-27T04:24:14.471Z,2.96
2024-01-27T04:26:44.002Z,2.91
2024-01-27T04:29:16.216Z,2.92
2024-01-27T04:31:44.414Z,2.90
2024-01-27T04:34:12.636Z,2.86
2024-01-27T04:36:41.127Z,2.80
2024-01-27T04:39:09.220Z,2.83
2024-01-27T04:41:37.337Z,2.89
2024-01-27T04:44:06.852Z,2.90
2024-01-27T04:46:35.071Z,2.82
2024-01-27T04:49:03.187Z,2.83
2024-01-27T04:51:31.423Z,2.74
2024-01-27T04:53:59.590Z,2.73
2024-01-27T04:56:27.643Z,2.65
2024-01-27T04:58:55.726Z,2.66
2024-01-27T05:01:25.162Z,2.63
2024-01-27T05:03:53.323Z,2.65
2024-01-27T05:06:21.464Z,2.67
2024-01-27T05:08:49.584Z,2.64
2024-01-27T05:11:18.726Z,2.67
2024-01-27T05:13:46.799Z,2.61
2024-01-27T05:16:14.831Z,2.54
2024-01-27T05:18:44.405Z,2.52
2024-01-27T05:21:12.736Z,2.57
2024-01-27T05:23:40.837Z,2.54
2024-01-27T05:26:08.936Z,2.45
2024-01-27T05:28:36.969Z,2.50
2024-01-27T05:31:05.332Z,2.44
2024-01-27T05:33:33.507Z,2.42
2024-01-27T05:36:03.029Z,2.40
2024-01-27T05:38:32.013Z,2.29
2024-01-27T05:41:00.637Z,2.27
2024-01-27T05:43:29.031Z,2.36
2024-01-27T05:45:57.542Z,2.22
2024-01-27T05:48:25.691Z,2.17
2024-01-27T05:51:01.066Z,2.09
2024-01-27T05:53:30.621Z,2.13
2024-01-27T05:55:59.005Z,2.17
2024-01-27T05:58:27.215Z,2.07
2024-01-27T06:00:55.379Z,2.20
2024-01-27T06:03:23.574Z,2.19
2024-01-27T06:05:51.791Z,2.31
2024-01-27T06:08:21.061Z,2.21
2024-01-27T06:10:50.586Z,2.18
2024-01-27T06:13:18.658Z,2.10
2024-01-27T06:15:46.688Z,2.09
2024-01-27T06:18:14.799Z,2.00
2024-01-27T06:20:43.504Z,2.03
2024-01-27T06:23:11.613Z,1.97
2024-01-27T06:25:39.629Z,2.02
2024-01-27T06:28:09.129Z,1.99
2024-01-27T06:30:37.200Z,1.96
2024-01-27T06:33:05.779Z,2.02
2024-01-27T06:35:33.840Z,1.94
2024-01-27T06:38:01.870Z,1.99
2024-01-27T06:40:29.949Z,2.09
2024-01-27T06:42:59.079Z,1.85
2024-01-27T06:45:29.424Z,2.01
2024-01-27T06:47:57.717Z,1.87
2024-01-27T06:50:25.797Z,1.80
2024-01-27T06:52:53.898Z,1.96
2024-01-27T06:55:21.913Z,1.79
2024-01-27T06:57:49.948Z,1.80
2024-01-27T07:00:19.238Z,1.73
2024-01-27T07:02:48.873Z,1.65
2024-01-27T07:05:17.121Z,1.79
2024-01-27T07:07:45.164Z,1.72
2024-01-27T07:10:13.299Z,1.68
2024-01-27T07:12:41.367Z,1.71
2024-01-27T07:15:10.042Z,1.64
2024-01-27T07:17:38.131Z,1.60
2024-01-27T07:20:09.311Z,1.70
2024-01-27T07:22:37.361Z,1.62
2024-01-27T07:25:06.196Z,1.57
2024-01-27T07:27:34.205Z,1.66
2024-01-27T07:30:02.746Z,1.62
2024-01-27T07:32:30.813Z,1.55
2024-01-27T07:34:58.972Z,1.52
2024-01-27T07:37:28.418Z,1.64
2024-01-27T07:39:56.477Z,1.50
2024-01-27T07:42:24.544Z,1.60
2024-01-27T07:44:52.631Z,1.56
2024-01-27T07:47:20.713Z,1.61
2024-01-27T07:49:50.214Z,1.49
2024-01-27T07:52:18.502Z,1.55
2024-01-27T07:54:48.000Z,1.55
2024-01-27T07:57:16.154Z,1.62
2024-01-27T07:59:44.276Z,1.64
2024-01-27T08:02:12.328Z,1.61
2024-01-27T08:04:40.541Z,1.71
2024-01-27T08:07:11.235Z,1.71
2024-01-27T08:09:40.410Z,1.74
2024-01-27T08:12:10.643Z,1.72
2024-01-27T08:14:39.259Z,1.72
2024-01-27T08:17:07.318Z,1.71
2024-01-27T08:19:35.752Z,1.79
2024-01-27T08:22:04.460Z,1.86
2024-01-27T08:24:32.504Z,1.84
2024-01-27T08:27:01.849Z,1.86
2024-01-27T08:29:31.310Z,1.88
2024-01-27T08:31:59.425Z,1.92
2024-01-27T08:34:27.641Z,1.93
2024-01-27T08:36:59.668Z,1.98
2024-01-27T08:39:27.816Z,2.00
2024-01-27T08:41:55.896Z,2.08
2024-01-27T08:44:24.426Z,2.10
2024-01-27T08:46:53.987Z,2.11
2024-01-27T08:49:22.234Z,2.14
2024-01-27T08:51:50.351Z,2.18
2024-01-27T08:54:18.425Z,2.21
2024-01-27T08:56:46.472Z,2.25
2024-01-27T08:59:14.509Z,2.26
2024-01-27T09:01:42.599Z,2.28
2024-01-27T09:04:12.038Z,2.33
2024-01-27T09:06:40.126Z,2.41
2024-01-27T09:09:09.144Z,2.47
2024-01-27T09:11:37.717Z,2.54
2024-01-27T09:14:08.276Z,2.56
2024-01-27T09:16:36.618Z,2.66
2024-01-27T09:19:04.799Z,2.70
2024-01-27T09:21:34.514Z,2.78
2024-01-27T09:24:03.720Z,2.88
2024-01-27T09:26:32.033Z,2.87
2024-01-27T09:29:00.102Z,2.99
2024-01-27T09:31:28.165Z,3.04
2024-01-27T09:33:57.335Z,3.03
2024-01-27T09:36:25.625Z,3.08
2024-01-27T09:38:55.757Z,3.09
2024-01-27T09:41:23.960Z,3.15
2024-01-27T09:43:52.006Z,3.20
2024-01-27T09:46:20.301Z,3.24
2024-01-27T09:48:48.465Z,3.29
2024-01-27T09:51:17.421Z,3.44
2024-01-27T09:53:45.594Z,3.43
2024-01-27T09:56:19.221Z,3.45
2024-01-27T09:58:47.861Z,3.54
2024-01-27T10:01:19.160Z,3.58
2024-01-27T10:03:49.162Z,3.68
2024-01-27T10:06:17.430Z,3.70
2024-01-27T10:08:54.736Z,3.74
2024-01-27T10:11:25.872Z,3.77
2024-01-27T10:13:59.673Z,3.84
2024-01-27T10:16:28.889Z,3.94
2024-01-27T10:19:03.520Z,3.97
2024-01-27T10:21:32.035Z,4.04
2024-01-27T10:24:00.194Z,4.08
2024-01-27T10:26:33.262Z,4.08
2024-01-27T10:29:01.340Z,4.16
2024-01-27T10:31:30.061Z,4.17
2024-01-27T10:33:59.022Z,4.22
2024-01-27T10:36:28.457Z,4.24
2024-01-27T10:38:56.547Z,4.36
2024-01-27T10:41:27.530Z,4.35
2024-01-27T10:43:58.942Z,4.41
2024-01-27T10:46:28.067Z,4.44
2024-01-27T10:48:56.273Z,4.44
2024-01-27T10:51:31.094Z,4.54
2024-01-27T10:54:04.690Z,4.62
2024-01-27T10:56:34.011Z,4.73
2024-01-27T10:59:04.237Z,4.66
2024-01-27T11:01:34.082Z,4.67
2024-01-27T11:04:04.442Z,4.81
2024-01-27T11:06:33.962Z,4.84
2024-01-27T11:09:02.378Z,5.02
2024-01-27T11:11:30.474Z,4.84
2024-01-27T11:13:58.544Z,4.78
2024-01-27T11:16:29.749Z,4.84
2024-01-27T11:18:58.161Z,4.92
2024-01-27T11:21:26.305Z,4.86
2024-01-27T11:23:54.445Z,4.93
2024-01-27T11:26:24.676Z,4.87
2024-01-27T11:28:54.039Z,4.89
2024-01-27T11:31:22.444Z,4.91
2024-01-27T11:33:54.579Z,5.04
2024-01-27T11:36:25.023Z,5.00
2024-01-27T11:38:54.523Z,5.11
2024-01-27T11:41:26.969Z,5.29
2024-01-27T11:43:55.541Z,5.05
2024-01-27T11:46:23.602Z,5.07
2024-01-27T11:48:54.021Z,5.09
2024-01-27T11:51:24.903Z,5.20
2024-01-27T11:53:53.728Z,5.17
2024-01-27T11:56:22.538Z,5.09
2024-01-27T11:58:51.606Z,5.25
2024-01-27T12:01:20.165Z,5.30
2024-01-27T12:03:49.974Z,5.43
2024-01-27T12:06:19.944Z,5.28
2024-01-27T12:08:50.134Z,5.17
2024-01-27T12:11:22.416Z,5.28
2024-01-27T12:13:53.517Z,5.44
2024-01-27T12:16:23.832Z,5.43
2024-01-27T12:18:56.071Z,5.45
2024-01-27T12:21:26.283Z,5.49
2024-01-27T12:23:56.288Z,5.51
2024-01-27T12:26:25.457Z,5.48
2024-01-27T12:28:54.038Z,5.46
2024-01-27T12:31:22.203Z,5.50
2024-01-27T12:33:54.651Z,5.52
2024-01-27T12:36:23.092Z,5.50
2024-01-27T12:38:59.824Z,5.59
2024-01-27T12:41:28.208Z,5.60
2024-01-27T12:43:56.679Z,5.56
2024-01-27T12:46:24.962Z,5.56
2024-01-27T12:48:54.346Z,5.67
2024-01-27T12:51:23.171Z,5.70
2024-01-27T12:53:51.262Z,5.70
2024-01-27T12:56:20.973Z,5.66
2024-01-27T12:58:49.155Z,5.63
2024-01-27T13:01:17.396Z,5.68
2024-01-27T13:03:46.201Z,5.75
2024-01-27T13:06:15.277Z,5.76
2024-01-27T13:08:43.743Z,5.72
2024-01-27T13:11:14.065Z,5.78
2024-01-27T13:13:45.562Z,5.77
2024-01-27T13:16:14.809Z,5.76
2024-01-27T13:18:43.143Z,5.79
2024-01-27T13:21:11.357Z,5.87
2024-01-27T13:23:39.438Z,5.85
2024-01-27T13:26:17.559Z,5.80
2024-01-27T13:28:50.178Z,5.85
2024-01-27T13:31:19.418Z,5.81
2024-01-27T13:33:48.698Z,5.78
2024-01-27T13:36:17.623Z,5.77
2024-01-27T13:38:46.054Z,5.74
2024-01-27T13:41:14.508Z,5.85
2024-01-27T13:43:42.627Z,5.85
2024-01-27T13:46:12.208Z,5.84
2024-01-27T13:48:40.568Z,5.80
2024-01-27T13:51:08.912Z,5.87
2024-01-27T13:53:46.271Z,5.88
2024-01-27T13:56:15.995Z,5.91
2024-01-27T13:58:44.730Z,5.89
2024-01-27T14:01:14.272Z,5.89
2024-01-27T14:03:42.567Z,5.90
2024-01-27T14:06:14.256Z,5.90
2024-01-27T14:08:43.261Z,5.90
2024-01-27T14:11:11.833Z,5.93
2024-01-27T14:13:39.907Z,5.88
2024-01-27T14:16:08.562Z,5.90
2024-01-27T14:18:38.121Z,5.90
2024-01-27T14:21:06.602Z,5.92
2024-01-27T14:23:34.648Z,5.92
2024-01-27T14:26:02.820Z,5.92
2024-01-27T14:28:30.974Z,5.93
2024-01-27T14:30:59.032Z,5.87
2024-01-27T14:33:27.143Z,5.82
2024-01-27T14:35:56.724Z,5.82
2024-01-27T14:38:25.128Z,5.85
2024-01-27T14:40:53.228Z,5.86
2024-01-27T14:43:21.299Z,5.84
2024-01-27T14:45:49.823Z,5.79
2024-01-27T14:48:20.669Z,5.77
2024-01-27T14:50:53.874Z,5.74
2024-01-27T14:53:23.400Z,5.67
2024-01-27T14:55:51.776Z,5.63
2024-01-27T14:58:19.821Z,5.63
2024-01-27T15:00:53.471Z,5.61
2024-01-27T15:03:23.053Z,5.58
2024-01-27T15:05:51.256Z,5.52
2024-01-27T15:08:19.575Z,5.47
2024-01-27T15:10:49.313Z,5.44
2024-01-27T15:13:18.147Z,5.38
2024-01-27T15:15:46.338Z,5.36
2024-01-27T15:18:14.922Z,5.31
2024-01-27T15:20:43.034Z,5.23
2024-01-27T15:23:11.050Z,5.20
2024-01-27T15:25:39.645Z,5.12
2024-01-27T15:28:09.491Z,5.10
2024-01-27T15:30:38.022Z,5.10
2024-01-27T15:33:06.800Z,4.98
2024-01-27T15:35:38.371Z,4.95
2024-01-27T15:38:07.317Z,4.87
2024-01-27T15:40:35.904Z,4.89
2024-01-27T15:43:04.424Z,4.86
2024-01-27T15:45:34.030Z,4.79
2024-01-27T15:48:02.574Z,4.76
2024-01-27T15:50:33.270Z,4.73
2024-01-27T15:53:03.811Z,4.63
2024-01-27T15:55:34.308Z,4.53
2024-01-27T15:58:02.806Z,4.48
2024-01-27T16:00:31.218Z,4.43
2024-01-27T16:03:00.796Z,4.43
2024-01-27T16:05:28.863Z,4.32
2024-01-27T16:07:56.894Z,4.32
2024-01-27T16:10:24.912Z,4.29
2024-01-27T16:12:52.966Z,4.25
2024-01-27T16:15:21.036Z,4.25
2024-01-27T16:17:49.165Z,4.24
2024-01-27T16:20:18.738Z,4.23
2024-01-27T16:22:46.741Z,4.20
2024-01-27T16:25:15.150Z,4.17
2024-01-27T16:27:42.282Z,4.12
2024-01-27T16:30:11.189Z,4.13
2024-01-27T16:32:39.414Z,4.12
2024-01-27T16:35:09.438Z,4.08
2024-01-27T16:37:39.022Z,4.04
2024-01-27T16:40:08.507Z,4.00
2024-01-27T16:42:38.431Z,3.99
2024-01-27T16:45:08.528Z,3.95
2024-01-27T16:47:36.782Z,3.88
2024-01-27T16:50:05.631Z,3.81
2024-01-27T16:52:33.720Z,3.82
2024-01-27T16:55:03.181Z,3.78
2024-01-27T16:57:32.627Z,3.78
2024-01-27T17:00:01.001Z,3.73
2024-01-27T17:02:29.077Z,3.70
2024-01-27T17:05:03.694Z,3.66
2024-01-27T17:07:33.608Z,3.61
2024-01-27T17:10:05.910Z,3.58
2024-01-27T17:12:34.522Z,3.55
2024-01-27T17:15:02.744Z,3.55
2024-01-27T17:17:30.910Z,3.52
2024-01-27T17:19:59.427Z,3.49
2024-01-27T17:22:27.477Z,3.45
2024-01-27T17:24:59.578Z,3.43
2024-01-27T17:27:29.081Z,3.41
2024-01-27T17:29:57.820Z,3.37
2024-01-27T17:32:26.191Z,3.38
2024-01-27T17:34:54.507Z,3.34
2024-01-27T17:37:22.677Z,3.32
2024-01-27T17:39:51.550Z,3.28
2024-01-27T17:42:19.739Z,3.25
2024-01-27T17:44:49.566Z,3.28
2024-01-27T17:47:17.614Z,3.25
2024-01-27T17:49:45.838Z,3.23
2024-01-27T17:52:14.223Z,3.17
2024-01-27T17:54:42.302Z,3.15
2024-01-27T17:57:10.376Z,3.17
2024-01-27T17:59:40.275Z,3.14
2024-01-27T18:02:09.767Z,3.15
2024-01-27T18:04:38.019Z,3.15
2024-01-27T18:07:06.457Z,3.12
2024-01-27T18:09:34.706Z,3.13
2024-01-27T18:12:04.431Z,3.11
2024-01-27T18:14:32.537Z,3.08
2024-01-27T18:17:00.556Z,3.05
2024-01-27T18:19:30.059Z,3.03
2024-01-27T18:22:04.144Z,3.06
2024-01-27T18:24:32.357Z,3.02
2024-01-27T18:27:01.271Z,3.01
2024-01-27T18:29:30.553Z,3.00
2024-01-27T18:31:59.852Z,2.96
2024-01-27T18:34:29.542Z,2.94
2024-01-27T18:36:57.701Z,2.93
2024-01-27T18:39:25.810Z,2.93
2024-01-27T18:41:53.847Z,2.92
2024-01-27T18:44:21.937Z,2.92
2024-01-27T18:46:49.978Z,2.93
2024-01-27T18:49:19.040Z,2.94
2024-01-27T18:51:50.291Z,2.91
2024-01-27T18:54:20.154Z,2.86
2024-01-27T18:56:48.300Z,2.82
2024-01-27T18:59:17.865Z,2.80
2024-01-27T19:01:45.958Z,2.79
2024-01-27T19:04:14.081Z,2.82
2024-01-27T19:06:43.515Z,2.82
2024-01-27T19:09:13.277Z,2.79
2024-01-27T19:11:43.572Z,2.80
2024-01-27T19:14:11.924Z,2.78
2024-01-27T19:16:41.640Z,2.75
2024-01-27T19:19:10.258Z,2.73
2024-01-27T19:21:38.555Z,2.69
2024-01-27T19:24:07.217Z,2.65
2024-01-27T19:26:37.544Z,2.65
2024-01-27T19:29:05.775Z,2.62
2024-01-27T19:31:35.264Z,2.59
2024-01-27T19:34:03.450Z,2.59
2024-01-27T19:36:31.686Z,2.56
2024-01-27T19:38:59.829Z,2.53
2024-01-27T19:41:27.977Z,2.46
2024-01-27T19:43:57.506Z,2.44
2024-01-27T19:46:25.577Z,2.44
2024-01-27T19:48:53.789Z,2.43
2024-01-27T19:51:22.260Z,2.36
2024-01-27T19:53:50.413Z,2.33
2024-01-27T19:56:18.581Z,2.33
2024-01-27T19:58:46.656Z,2.33
2024-01-27T20:01:18.839Z,2.29
2024-01-27T20:03:49.606Z,2.24
2024-01-27T20:06:18.024Z,2.21
2024-01-27T20:08:46.121Z,2.23
2024-01-27T20:11:14.164Z,2.26
2024-01-27T20:13:42.190Z,2.22
2024-01-27T20:16:10.393Z,2.19
2024-01-27T20:18:39.893Z,2.19
2024-01-27T20:21:08.026Z,2.13
2024-01-27T20:23:36.082Z,2.11
2024-01-27T20:26:04.174Z,2.09
2024-01-27T20:28:32.199Z,2.07
2024-01-27T20:31:01.010Z,2.06
2024-01-27T20:33:37.009Z,2.00
2024-01-27T20:36:11.139Z,1.99
2024-01-27T20:38:40.369Z,1.97
2024-01-27T20:41:08.444Z,1.95
2024-01-27T20:43:36.527Z,1.95
2024-01-27T20:46:07.237Z,1.92
2024-01-27T20:48:35.629Z,1.92
2024-01-27T20:51:03.915Z,1.90
2024-01-27T20:53:34.174Z,1.88
2024-01-27T20:56:02.293Z,1.86
2024-01-27T20:58:30.420Z,1.82
2024-01-27T21:00:58.519Z,1.83
2024-01-27T21:03:26.638Z,1.83
2024-01-27T21:05:54.682Z,1.77
2024-01-27T21:08:22.760Z,1.78
2024-01-27T21:10:52.179Z,1.80
2024-01-27T21:13:20.212Z,1.77
2024-01-27T21:15:48.389Z,1.81
2024-01-27T21:18:17.100Z,1.79
2024-01-27T21:20:45.227Z,1.75
2024-01-27T21:23:13.254Z,1.74
2024-01-27T21:25:41.305Z,1.72
2024-01-27T21:28:10.717Z,1.72
2024-01-27T21:30:38.797Z,1.74
2024-01-27T21:33:09.035Z,1.69
2024-01-27T21:35:37.562Z,1.69
2024-01-27T21:38:05.891Z,1.70
2024-01-27T21:40:40.484Z,1.62
2024-01-27T21:43:11.890Z,1.59
2024-01-27T21:45:40.941Z,1.57
2024-01-27T21:48:09.457Z,1.52
2024-01-27T21:50:38.084Z,1.53
2024-01-27T21:53:06.734Z,1.55
2024-01-27T21:55:35.945Z,1.48
2024-01-27T21:58:04.850Z,1.49
2024-01-27T22:00:34.508Z,1.43
2024-01-27T22:03:02.918Z,1.41
2024-01-27T22:05:31.090Z,1.41
2024-01-27T22:08:00.095Z,1.42
2024-01-27T22:10:28.956Z,1.42
2024-01-27T22:12:57.085Z,1.38
2024-01-27T22:15:25.182Z,1.35
2024-01-27T22:17:54.716Z,1.33
2024-01-27T22:20:22.769Z,1.35
2024-01-27T22:22:50.830Z,1.28
2024-01-27T22:25:18.912Z,1.26
2024-01-27T22:27:46.987Z,1.33
2024-01-27T22:30:16.252Z,1.33
2024-01-27T22:32:44.595Z,1.30
2024-01-27T22:35:14.092Z,1.26
2024-01-27T22:37:42.103Z,1.23
2024-01-27T22:40:11.421Z,1.22
2024-01-27T22:42:39.560Z,1.15
2024-01-27T22:45:09.215Z,1.19
2024-01-27T22:47:37.417Z,1.15
2024-01-27T22:50:06.081Z,1.17
2024-01-27T22:52:35.789Z,1.09
2024-01-27T22:55:03.882Z,1.08
2024-01-27T22:57:32.837Z,1.08
2024-01-27T23:00:01.372Z,1.06
2024-01-27T23:02:29.503Z,0.99
2024-01-27T23:04:57.592Z,1.02
2024-01-27T23:07:25.761Z,1.08
2024-01-27T23:09:55.290Z,1.08
2024-01-27T23:12:24.878Z,1.05
2024-01-27T23:14:53.097Z,1.08
2024-01-27T23:17:21.141Z,1.11
2024-01-27T23:19:49.302Z,1.17
2024-01-27T23:22:17.406Z,1.10
2024-01-27T23:24:45.687Z,1.09
2024-01-27T23:27:15.257Z,1.17
2024-01-27T23:29:43.445Z,1.16
2024-01-27T23:32:11.478Z,1.21
2024-01-27T23:34:39.885Z,1.14
2024-01-27T23:37:08.060Z,1.18
2024-01-27T23:39:37.677Z,1.18
2024-01-27T23:42:06.142Z,1.12
2024-01-27T23:44:35.563Z,1.10
2024-01-27T23:47:04.816Z,1.10
2024-01-27T23:49:32.970Z,1.03
2024-01-27T23:52:02.752Z,0.98
2024-01-27T23:54:30.862Z,0.99
2024-01-27T23:56:58.972Z,0.93
2024-01-27T23:59:27.014Z,0.90
